Tripoli, WI

9:56 AM CST on January 25, 2015 (GMT -0600)
RICE RESERVOIR | Change Station
CLOSE
Current Station
Personal Weather Station
Location: Tomahawk, WI
Elevation: 1499 ft
Nearby Weather Stations

Elev 1499 ft 45.56 °N, 89.77 °W | Updated 3 minutes ago

Overcast
Overcast
14.3 °F
Feels Like 14 °F
N
1.0
Wind Variable Wind from ENE
Gusts 3.0 mph

Today
High -- | Low -- °F
--% Chance of Precip.
Yesterday
High -- | Low -- °F
Precip. -- in
7:29 AM 4:55 PM
Waxing Crescent, 33% visible
Pressure 29.97 in
Visibility 10.0 miles
Clouds Overcast 1900 ft
Windchill 14 °F
Dew Point 6 °F
Humidity 70%
Rainfall 0.00 in
Snow Depth Not available.
UV 0 out of 12
Pollen .10 out of 12
Air Quality Not available.
Flu Activity Not available.
METAR KTKV 251535Z AUTO 04005KT 10SM OVC019 M10/M14 A2997 RMK AO2 T10981139

More Conditions Fewer Conditions

Pressure 29.97 in
Visibility 10.0 miles
Clouds Overcast 1900 ft
Windchill 14 °F
Dew Point 6 °F
Humidity 70%
Rainfall 0.00 in
Snow Depth Not available.
UV 0 out of 12
Pollen .10 out of 12
Air Quality Not available.
Flu Activity Not available.
METAR KTKV 251535Z AUTO 04005KT 10SM OVC019 M10/M14 A2997 RMK AO2 T10981139

More Conditions Fewer Conditions

10-Day Weather Forecast

Almanac

Astronomy

Jan. 25, 2015 Rise Set
Actual Time
Civil Twilight
Nautical Twilight
Astronomical Twilight
Moon
Length of Visible Light
Length of Day
Tomorrow will be .
, % of the Moon is Illuminated

Today's Extremes

State Highs State Lows

Community

WunderPhotos

Upload Photos

1,789,926 photos uploaded!

WunderBlogs® & News

Nearby

Air Quality

  Air Quality AQ Index Pollutant
Not available.

Snow Depth

Station Depth Elevation

Earthquake Activity

City Distance Mag. Time & Date
Minimum magnitude displayed is 2.5.

Coastal Water Temperatures

Place Temperature

Nearby Weather Stations